createdAt,value
2018-01-01T00:00:33.573Z,0
2018-01-01T00:01:37.772Z,0
2018-01-01T00:02:40.880Z,0
2018-01-01T00:03:46.360Z,0
2018-01-01T00:04:49.356Z,0
2018-01-01T00:05:53.741Z,0
2018-01-01T00:06:57.435Z,0
2018-01-01T00:08:00.170Z,0
2018-01-01T00:09:01.404Z,0
2018-01-01T00:10:02.814Z,0
2018-01-01T00:11:04.203Z,0
2018-01-01T00:12:05.606Z,0
2018-01-01T00:13:07.022Z,0
2018-01-01T00:14:08.436Z,0
2018-01-01T00:15:09.849Z,0
2018-01-01T00:16:11.264Z,0
2018-01-01T00:17:12.676Z,0
2018-01-01T00:18:14.091Z,0
2018-01-01T00:19:15.578Z,0
2018-01-01T00:20:16.976Z,0
2018-01-01T00:21:18.382Z,0
2018-01-01T00:22:19.796Z,0
2018-01-01T00:23:21.207Z,0
2018-01-01T00:24:22.617Z,0
2018-01-01T00:25:24.022Z,0
2018-01-01T00:26:25.436Z,0
2018-01-01T00:27:26.849Z,0
2018-01-01T00:28:28.252Z,0
2018-01-01T00:29:29.663Z,0
2018-01-01T00:30:31.077Z,0
2018-01-01T00:31:32.486Z,0
2018-01-01T00:32:33.896Z,0
2018-01-01T00:33:35.309Z,0
2018-01-01T00:34:36.716Z,0
2018-01-01T00:35:38.133Z,0
2018-01-01T00:36:39.548Z,0
2018-01-01T00:37:40.959Z,0
2018-01-01T00:38:42.390Z,0
2018-01-01T00:39:43.794Z,0
2018-01-01T00:40:45.210Z,0
2018-01-01T00:41:46.613Z,0
2018-01-01T00:42:48.030Z,0
2018-01-01T00:43:49.437Z,0
2018-01-01T00:44:50.842Z,0
2018-01-01T00:45:52.253Z,0
2018-01-01T00:46:53.713Z,0
2018-01-01T00:47:55.085Z,0
2018-01-01T00:48:56.494Z,0
2018-01-01T00:49:58.008Z,0
2018-01-01T00:50:59.422Z,0
2018-01-01T00:52:00.842Z,0
2018-01-01T00:53:02.240Z,0
2018-01-01T00:54:03.664Z,0
2018-01-01T00:55:05.076Z,0
2018-01-01T00:56:06.484Z,0
2018-01-01T00:57:07.912Z,0
2018-01-01T00:58:09.316Z,0
2018-01-01T00:59:10.724Z,0
2018-01-01T01:00:12.138Z,0
2018-01-01T01:01:13.545Z,0
2018-01-01T01:02:14.985Z,0
2018-01-01T01:03:16.396Z,0
2018-01-01T01:04:17.803Z,0
2018-01-01T01:05:19.213Z,0
2018-01-01T01:06:20.634Z,0
2018-01-01T01:07:22.583Z,0
2018-01-01T01:08:23.995Z,0
2018-01-01T01:09:25.402Z,0
2018-01-01T01:10:26.819Z,0
2018-01-01T01:11:28.224Z,0
2018-01-01T01:12:29.637Z,0
2018-01-01T01:13:31.048Z,0
2018-01-01T01:14:32.457Z,0
2018-01-01T01:15:33.871Z,0
2018-01-01T01:16:35.283Z,0
2018-01-01T01:17:36.689Z,0
2018-01-01T01:18:38.111Z,0
2018-01-01T01:19:39.531Z,0
2018-01-01T01:20:40.934Z,0
2018-01-01T01:21:42.343Z,0
2018-01-01T01:22:43.750Z,0
2018-01-01T01:23:45.160Z,0
2018-01-01T01:24:46.595Z,0
2018-01-01T01:25:48.001Z,0
2018-01-01T01:26:49.417Z,0
2018-01-01T01:27:50.828Z,0
2018-01-01T01:28:52.239Z,0
2018-01-01T01:29:53.640Z,0
2018-01-01T01:30:55.053Z,0
2018-01-01T01:31:56.468Z,0
2018-01-01T01:32:57.877Z,0
2018-01-01T01:33:59.287Z,0
2018-01-01T01:35:00.699Z,0
2018-01-01T01:36:02.112Z,0
2018-01-01T01:37:03.632Z,0
2018-01-01T01:38:05.054Z,0
2018-01-01T01:39:06.467Z,0
2018-01-01T01:40:07.887Z,0
2018-01-01T01:41:09.304Z,0
2018-01-01T01:42:10.711Z,0
2018-01-01T01:43:12.121Z,0
2018-01-01T01:44:13.625Z,0
2018-01-01T01:45:15.033Z,0
2018-01-01T01:46:16.442Z,0
2018-01-01T01:47:17.854Z,0
2018-01-01T01:48:19.277Z,0
2018-01-01T01:49:20.688Z,0
2018-01-01T01:50:22.120Z,0
2018-01-01T01:51:23.530Z,0
2018-01-01T01:52:24.946Z,0
2018-01-01T01:53:26.355Z,0
2018-01-01T01:54:27.764Z,0
2018-01-01T01:55:29.183Z,0
2018-01-01T01:56:30.571Z,0
2018-01-01T01:57:31.996Z,0
2018-01-01T01:58:33.404Z,0
2018-01-01T01:59:34.826Z,0
2018-01-01T02:00:36.235Z,0
2018-01-01T02:01:37.636Z,0
2018-01-01T02:02:39.050Z,0
2018-01-01T02:03:40.468Z,0
2018-01-01T02:04:41.872Z,0
2018-01-01T02:05:43.290Z,0
2018-01-01T02:06:44.697Z,0
2018-01-01T02:07:46.108Z,0
2018-01-01T02:08:47.516Z,0
2018-01-01T02:09:48.938Z,0
2018-01-01T02:10:50.351Z,0
2018-01-01T02:11:51.765Z,0
2018-01-01T02:12:53.209Z,0
2018-01-01T02:13:54.614Z,0
2018-01-01T02:14:56.029Z,0
2018-01-01T02:15:57.446Z,0
2018-01-01T02:16:58.856Z,0
2018-01-01T02:18:00.267Z,0
2018-01-01T02:19:01.681Z,0
2018-01-01T02:20:03.091Z,0
2018-01-01T02:21:04.495Z,0
2018-01-01T02:22:05.908Z,0
2018-01-01T02:23:07.322Z,0
2018-01-01T02:24:08.739Z,0
2018-01-01T02:25:10.140Z,0
2018-01-01T02:26:11.562Z,0
2018-01-01T02:27:12.982Z,0
2018-01-01T02:28:14.391Z,0
2018-01-01T02:29:15.807Z,0
2018-01-01T02:30:17.219Z,0
2018-01-01T02:31:18.626Z,0
2018-01-01T02:32:20.036Z,0
2018-01-01T02:33:21.440Z,0
2018-01-01T02:34:22.853Z,0
2018-01-01T02:35:24.265Z,0
2018-01-01T02:36:25.676Z,0
2018-01-01T02:37:27.096Z,0
2018-01-01T02:38:28.502Z,0
2018-01-01T02:39:29.912Z,0
2018-01-01T02:40:31.326Z,0
2018-01-01T02:41:32.735Z,0
2018-01-01T02:42:34.148Z,0
2018-01-01T02:43:35.550Z,0
2018-01-01T02:44:36.963Z,0
2018-01-01T02:45:38.373Z,0
2018-01-01T02:46:39.797Z,0
2018-01-01T02:47:41.223Z,0
2018-01-01T02:48:42.640Z,0
2018-01-01T02:49:44.059Z,0
2018-01-01T02:50:45.450Z,0
2018-01-01T02:51:46.869Z,0
2018-01-01T02:52:48.322Z,0
2018-01-01T02:53:49.733Z,0
2018-01-01T02:54:51.146Z,0
2018-01-01T02:55:52.569Z,0
2018-01-01T02:56:54.006Z,0
2018-01-01T02:57:55.392Z,0
2018-01-01T02:58:56.806Z,0
2018-01-01T02:59:58.219Z,0
2018-01-01T03:00:59.630Z,0
2018-01-01T03:02:01.037Z,0
2018-01-01T03:03:02.452Z,0
2018-01-01T03:04:03.870Z,0
2018-01-01T03:05:05.290Z,0
2018-01-01T03:06:06.710Z,0
2018-01-01T03:07:08.125Z,0
2018-01-01T03:08:09.545Z,0
2018-01-01T03:09:10.957Z,0
2018-01-01T03:10:12.368Z,0
2018-01-01T03:11:13.775Z,0
2018-01-01T03:12:15.185Z,0
2018-01-01T03:13:16.599Z,0
2018-01-01T03:14:18.004Z,0
2018-01-01T03:15:19.415Z,0
2018-01-01T03:16:20.827Z,0
2018-01-01T03:17:23.270Z,0
2018-01-01T03:18:24.681Z,0
2018-01-01T03:19:26.086Z,0
2018-01-01T03:20:27.500Z,0
2018-01-01T03:21:28.914Z,0
2018-01-01T03:22:30.294Z,0
2018-01-01T03:23:31.717Z,0
2018-01-01T03:24:33.119Z,0
2018-01-01T03:25:34.531Z,0
2018-01-01T03:26:35.937Z,0
2018-01-01T03:27:37.357Z,0
2018-01-01T03:28:38.775Z,0
2018-01-01T03:29:40.190Z,0
2018-01-01T03:30:41.604Z,0
2018-01-01T03:31:43.010Z,0
2018-01-01T03:32:44.435Z,0
2018-01-01T03:33:45.848Z,0
2018-01-01T03:34:47.286Z,0
2018-01-01T03:35:48.694Z,0
2018-01-01T03:36:50.106Z,0
2018-01-01T03:37:51.523Z,0
2018-01-01T03:38:52.939Z,0
2018-01-01T03:39:54.350Z,0
2018-01-01T03:40:55.761Z,0
2018-01-01T03:41:57.181Z,0
2018-01-01T03:42:58.591Z,0
2018-01-01T03:43:59.994Z,0
2018-01-01T03:45:01.408Z,0
2018-01-01T03:46:02.823Z,0
2018-01-01T03:47:04.235Z,0
2018-01-01T03:48:05.673Z,0
2018-01-01T03:49:07.083Z,0
2018-01-01T03:50:08.495Z,0
2018-01-01T03:51:09.905Z,0
2018-01-01T03:52:11.328Z,0
2018-01-01T03:53:12.733Z,0
2018-01-01T03:54:14.141Z,0
2018-01-01T03:55:15.560Z,0
2018-01-01T03:56:16.996Z,0
2018-01-01T03:57:18.395Z,0
2018-01-01T03:58:19.810Z,0
2018-01-01T03:59:21.224Z,0
2018-01-01T04:00:22.638Z,0
2018-01-01T04:01:24.051Z,0
2018-01-01T04:02:25.465Z,0
2018-01-01T04:03:26.876Z,0
2018-01-01T04:04:28.276Z,0
2018-01-01T04:05:29.690Z,0
2018-01-01T04:06:31.095Z,0
2018-01-01T04:07:32.522Z,0
2018-01-01T04:08:33.927Z,0
2018-01-01T04:09:35.334Z,0
2018-01-01T04:10:36.812Z,0
2018-01-01T04:11:38.231Z,0
2018-01-01T04:12:39.646Z,0
2018-01-01T04:13:41.055Z,0
2018-01-01T04:14:42.464Z,0
2018-01-01T04:15:43.877Z,0
2018-01-01T04:16:45.292Z,0
2018-01-01T04:17:46.715Z,0
2018-01-01T04:18:48.122Z,0
2018-01-01T04:19:49.547Z,0
2018-01-01T04:20:50.957Z,0
2018-01-01T04:21:52.372Z,0
2018-01-01T04:22:53.789Z,0
2018-01-01T04:23:55.194Z,0
2018-01-01T04:24:56.603Z,0
2018-01-01T04:25:58.028Z,0
2018-01-01T04:26:59.436Z,0
2018-01-01T04:28:00.857Z,0
2018-01-01T04:29:02.274Z,0
2018-01-01T04:30:03.688Z,0
2018-01-01T04:31:05.108Z,0
2018-01-01T04:32:06.530Z,0
2018-01-01T04:33:08.524Z,0
2018-01-01T04:34:11.713Z,0
2018-01-01T04:35:13.135Z,0
2018-01-01T04:36:14.559Z,0
2018-01-01T04:37:15.969Z,0
2018-01-01T04:38:17.387Z,0
2018-01-01T04:39:18.806Z,0
2018-01-01T04:40:20.221Z,0
2018-01-01T04:41:21.629Z,0
2018-01-01T04:42:23.041Z,0
2018-01-01T04:43:24.451Z,0
2018-01-01T04:44:25.854Z,0
2018-01-01T04:45:27.267Z,0
2018-01-01T04:46:28.689Z,0
2018-01-01T04:47:30.112Z,0
2018-01-01T04:48:31.519Z,0
2018-01-01T04:49:32.937Z,0
2018-01-01T04:50:34.354Z,0
2018-01-01T04:51:35.760Z,0
2018-01-01T04:52:37.167Z,0
2018-01-01T04:53:38.657Z,0
2018-01-01T04:54:40.070Z,0
2018-01-01T04:55:41.484Z,0
2018-01-01T04:56:42.897Z,0
2018-01-01T04:57:44.325Z,0
2018-01-01T04:58:45.722Z,0
2018-01-01T04:59:47.138Z,0
2018-01-01T05:00:48.545Z,0
2018-01-01T05:01:49.962Z,0
2018-01-01T05:02:51.365Z,0
2018-01-01T05:03:52.770Z,0
2018-01-01T05:04:54.180Z,0
2018-01-01T05:05:55.718Z,0
2018-01-01T05:06:57.126Z,0
2018-01-01T05:07:58.542Z,0
2018-01-01T05:08:59.973Z,0
2018-01-01T05:10:01.386Z,0
2018-01-01T05:11:02.798Z,0
2018-01-01T05:12:04.202Z,0
2018-01-01T05:13:05.723Z,0
2018-01-01T05:14:07.136Z,0
2018-01-01T05:15:08.550Z,0
2018-01-01T05:16:09.951Z,0
2018-01-01T05:17:11.366Z,0
2018-01-01T05:18:12.788Z,0
2018-01-01T05:19:14.193Z,0
2018-01-01T05:20:15.607Z,0
2018-01-01T05:21:17.017Z,0
2018-01-01T05:22:18.425Z,0
2018-01-01T05:23:19.839Z,0
2018-01-01T05:24:21.243Z,0
2018-01-01T05:25:22.656Z,0
2018-01-01T05:26:24.066Z,0
2018-01-01T05:27:25.488Z,0
2018-01-01T05:28:26.895Z,0
2018-01-01T05:29:28.312Z,0
2018-01-01T05:30:29.728Z,0
2018-01-01T05:31:31.138Z,0
2018-01-01T05:32:32.558Z,0
2018-01-01T05:33:33.970Z,0
2018-01-01T05:34:35.387Z,0
2018-01-01T05:35:36.805Z,0
2018-01-01T05:36:38.218Z,0
2018-01-01T05:37:39.713Z,0
2018-01-01T05:38:41.052Z,0
2018-01-01T05:39:42.457Z,0
2018-01-01T05:40:43.879Z,0
2018-01-01T05:41:45.284Z,0
2018-01-01T05:42:46.697Z,0
2018-01-01T05:43:48.101Z,0
2018-01-01T05:44:49.515Z,0
2018-01-01T05:45:50.928Z,0
2018-01-01T05:46:52.344Z,0
2018-01-01T05:47:53.755Z,0
2018-01-01T05:48:55.184Z,0
2018-01-01T05:49:56.595Z,0
2018-01-01T05:50:58.005Z,0
2018-01-01T05:51:59.416Z,0
2018-01-01T05:53:00.835Z,0
2018-01-01T05:54:02.247Z,0
2018-01-01T05:55:03.663Z,0
2018-01-01T05:56:05.073Z,0
2018-01-01T05:57:06.488Z,0
2018-01-01T05:58:07.905Z,0
2018-01-01T05:59:09.314Z,0
2018-01-01T06:00:10.729Z,0
2018-01-01T06:01:12.138Z,0
2018-01-01T06:02:13.605Z,0
2018-01-01T06:03:14.972Z,0
2018-01-01T06:04:16.376Z,0
2018-01-01T06:05:17.790Z,0
2018-01-01T06:06:19.199Z,0
2018-01-01T06:07:20.645Z,0
2018-01-01T06:08:22.764Z,0
2018-01-01T06:09:24.166Z,0
2018-01-01T06:10:25.579Z,0
2018-01-01T06:11:26.986Z,0
2018-01-01T06:12:28.410Z,0
2018-01-01T06:13:29.812Z,0
2018-01-01T06:14:31.229Z,0
2018-01-01T06:15:32.710Z,0
2018-01-01T06:16:34.115Z,0
2018-01-01T06:17:35.525Z,0
2018-01-01T06:18:36.944Z,0
2018-01-01T06:19:38.354Z,0
2018-01-01T06:20:39.770Z,0
2018-01-01T06:21:41.188Z,0
2018-01-01T06:22:42.594Z,0
2018-01-01T06:23:44.003Z,0
2018-01-01T06:24:45.421Z,0
2018-01-01T06:25:46.833Z,0
2018-01-01T06:26:48.245Z,0
2018-01-01T06:27:49.653Z,0
2018-01-01T06:28:51.062Z,0
2018-01-01T06:29:52.478Z,0
2018-01-01T06:30:53.887Z,0
2018-01-01T06:31:55.309Z,0
2018-01-01T06:32:56.712Z,0
2018-01-01T06:33:58.123Z,0
2018-01-01T06:34:59.528Z,0
2018-01-01T06:36:00.942Z,0
2018-01-01T06:37:02.347Z,0
2018-01-01T06:38:03.770Z,0
2018-01-01T06:39:05.178Z,0
2018-01-01T06:40:06.588Z,0
2018-01-01T06:41:07.991Z,0
2018-01-01T06:42:09.409Z,0
2018-01-01T06:43:10.821Z,0
2018-01-01T06:44:12.231Z,0
2018-01-01T06:45:13.641Z,0
2018-01-01T06:46:15.081Z,0
2018-01-01T06:47:16.487Z,0
2018-01-01T06:48:17.900Z,0
2018-01-01T06:49:19.304Z,0
2018-01-01T06:50:20.714Z,0
2018-01-01T06:51:22.137Z,0
2018-01-01T06:52:23.548Z,0
2018-01-01T06:53:24.950Z,0
2018-01-01T06:54:26.357Z,0
2018-01-01T06:55:27.761Z,0
2018-01-01T06:56:29.179Z,0
2018-01-01T06:57:30.593Z,0
2018-01-01T06:58:32.006Z,0
2018-01-01T06:59:33.411Z,0
2018-01-01T07:00:34.826Z,0
2018-01-01T07:01:36.237Z,0
2018-01-01T07:02:37.649Z,0
2018-01-01T07:03:39.050Z,0
2018-01-01T07:04:40.464Z,0
2018-01-01T07:05:41.878Z,0
2018-01-01T07:06:43.290Z,0
2018-01-01T07:07:44.699Z,0
2018-01-01T07:08:46.116Z,0
2018-01-01T07:09:47.545Z,0
2018-01-01T07:10:48.936Z,4
2018-01-01T07:11:50.349Z,4
2018-01-01T07:12:51.757Z,0
2018-01-01T07:13:53.170Z,0
2018-01-01T07:14:54.576Z,4
2018-01-01T07:15:55.985Z,4
2018-01-01T07:16:57.395Z,4
2018-01-01T07:17:58.816Z,8
2018-01-01T07:19:00.228Z,8
2018-01-01T07:20:01.636Z,4
2018-01-01T07:21:03.047Z,8
2018-01-01T07:22:04.453Z,4
2018-01-01T07:23:05.868Z,12
2018-01-01T07:24:07.278Z,12
2018-01-01T07:25:08.688Z,12
2018-01-01T07:26:10.097Z,12
2018-01-01T07:27:11.506Z,16
2018-01-01T07:28:12.918Z,16
2018-01-01T07:29:14.327Z,16
2018-01-01T07:30:15.742Z,20
2018-01-01T07:31:17.153Z,28
2018-01-01T07:32:18.564Z,24
2018-01-01T07:33:19.969Z,28
2018-01-01T07:34:21.384Z,28
2018-01-01T07:35:22.807Z,24
2018-01-01T07:36:24.220Z,36
2018-01-01T07:37:25.646Z,36
2018-01-01T07:38:27.065Z,32
2018-01-01T07:39:28.473Z,44
2018-01-01T07:40:29.880Z,48
2018-01-01T07:41:31.295Z,60
2018-01-01T07:42:32.699Z,64
2018-01-01T07:43:34.105Z,68
2018-01-01T07:44:35.526Z,68
2018-01-01T07:45:36.933Z,76
2018-01-01T07:46:38.349Z,88
2018-01-01T07:47:39.767Z,100
2018-01-01T07:48:41.180Z,116
2018-01-01T07:49:42.599Z,132
2018-01-01T07:50:44.031Z,144
2018-01-01T07:51:45.437Z,160
2018-01-01T07:52:46.859Z,168
2018-01-01T07:53:48.283Z,172
2018-01-01T07:54:49.698Z,180
2018-01-01T07:55:51.113Z,192
2018-01-01T07:56:52.540Z,188
2018-01-01T07:57:53.955Z,188
2018-01-01T07:58:55.369Z,184
2018-01-01T07:59:56.778Z,188
2018-01-01T08:00:58.187Z,184
2018-01-01T08:01:59.608Z,184
2018-01-01T08:03:01.023Z,224
2018-01-01T08:04:02.427Z,268
2018-01-01T08:05:03.844Z,292
2018-01-01T08:06:05.267Z,304
2018-01-01T08:07:06.676Z,328
2018-01-01T08:08:08.099Z,344
2018-01-01T08:09:09.505Z,360
2018-01-01T08:10:10.926Z,424
2018-01-01T08:11:12.336Z,404
2018-01-01T08:12:13.758Z,432
2018-01-01T08:13:15.171Z,436
2018-01-01T08:14:16.590Z,412
2018-01-01T08:15:17.999Z,392
2018-01-01T08:16:19.422Z,384
2018-01-01T08:17:20.838Z,400
2018-01-01T08:18:22.251Z,412
2018-01-01T08:19:23.665Z,460
2018-01-01T08:20:25.079Z,476
2018-01-01T08:21:26.499Z,428
2018-01-01T08:22:27.918Z,392
2018-01-01T08:23:29.344Z,376
2018-01-01T08:24:30.768Z,372
2018-01-01T08:25:32.188Z,296
2018-01-01T08:26:33.604Z,324
2018-01-01T08:27:35.017Z,320
2018-01-01T08:28:36.435Z,308
2018-01-01T08:29:37.853Z,332
2018-01-01T08:30:39.276Z,336
2018-01-01T08:31:40.691Z,364
2018-01-01T08:32:42.112Z,412
2018-01-01T08:33:43.522Z,368
2018-01-01T08:34:44.939Z,384
2018-01-01T08:35:46.358Z,344
2018-01-01T08:36:47.763Z,332
2018-01-01T08:37:49.179Z,320
2018-01-01T08:38:50.591Z,312
2018-01-01T08:39:52.009Z,312
2018-01-01T08:40:53.415Z,308
2018-01-01T08:41:54.844Z,344
2018-01-01T08:42:56.241Z,360
2018-01-01T08:43:57.655Z,320
2018-01-01T08:44:59.076Z,356
2018-01-01T08:46:00.503Z,376
2018-01-01T08:47:01.913Z,444
2018-01-01T08:48:03.860Z,496
2018-01-01T08:49:05.281Z,504
2018-01-01T08:50:06.684Z,580
2018-01-01T08:51:08.098Z,596
2018-01-01T08:52:09.515Z,632
2018-01-01T08:53:10.936Z,560
2018-01-01T08:54:12.349Z,452
2018-01-01T08:55:13.766Z,456
2018-01-01T08:56:15.181Z,468
2018-01-01T08:57:16.557Z,436
2018-01-01T08:58:17.974Z,388
2018-01-01T08:59:19.387Z,360
2018-01-01T09:00:20.793Z,332
2018-01-01T09:01:22.212Z,372
2018-01-01T09:02:23.620Z,364
2018-01-01T09:03:25.043Z,364
2018-01-01T09:04:26.448Z,388
2018-01-01T09:05:27.858Z,472
2018-01-01T09:06:29.271Z,544
2018-01-01T09:07:30.683Z,592
2018-01-01T09:08:32.212Z,632
2018-01-01T09:09:33.621Z,708
2018-01-01T09:10:35.040Z,704
2018-01-01T09:11:36.451Z,480
2018-01-01T09:12:37.874Z,552
2018-01-01T09:13:39.295Z,548
2018-01-01T09:14:40.713Z,560
2018-01-01T09:15:42.149Z,476
2018-01-01T09:16:43.557Z,512
2018-01-01T09:17:44.973Z,516
2018-01-01T09:18:46.380Z,416
2018-01-01T09:19:47.803Z,388
2018-01-01T09:20:49.205Z,152
2018-01-01T09:21:50.639Z,192
2018-01-01T09:22:52.046Z,168
2018-01-01T09:23:53.460Z,392
2018-01-01T09:24:54.877Z,320
2018-01-01T09:25:56.295Z,404
2018-01-01T09:26:57.697Z,452
2018-01-01T09:27:59.119Z,496
2018-01-01T09:29:00.545Z,640
2018-01-01T09:30:01.963Z,572
2018-01-01T09:31:03.375Z,336
2018-01-01T09:32:04.791Z,412
2018-01-01T09:33:06.207Z,680
2018-01-01T09:34:07.609Z,472
2018-01-01T09:35:09.029Z,488
2018-01-01T09:36:10.448Z,504
2018-01-01T09:37:11.858Z,508
2018-01-01T09:38:13.277Z,512
2018-01-01T09:39:14.703Z,512
2018-01-01T09:40:16.123Z,556
2018-01-01T09:41:17.539Z,684
2018-01-01T09:42:18.957Z,1268
2018-01-01T09:43:20.372Z,1204
2018-01-01T09:44:21.790Z,956
2018-01-01T09:45:23.205Z,1172
2018-01-01T09:46:24.618Z,812
2018-01-01T09:47:26.031Z,776
2018-01-01T09:48:27.456Z,920
2018-01-01T09:49:28.879Z,592
2018-01-01T09:50:30.300Z,756
2018-01-01T09:51:31.710Z,700
2018-01-01T09:52:33.131Z,596
2018-01-01T09:53:34.551Z,700
2018-01-01T09:54:35.967Z,736
2018-01-01T09:55:37.394Z,564
2018-01-01T09:56:38.810Z,560
2018-01-01T09:57:40.216Z,484
2018-01-01T09:58:41.632Z,488
2018-01-01T09:59:43.040Z,520
2018-01-01T10:00:44.449Z,448
2018-01-01T10:01:46.594Z,468
2018-01-01T10:02:48.014Z,436
2018-01-01T10:03:49.433Z,424
2018-01-01T10:04:50.885Z,500
2018-01-01T10:05:52.273Z,536
2018-01-01T10:06:53.691Z,452
2018-01-01T10:07:55.124Z,472
2018-01-01T10:08:56.541Z,340
2018-01-01T10:09:57.954Z,296
2018-01-01T10:10:59.370Z,432
2018-01-01T10:12:00.787Z,492
2018-01-01T10:13:02.196Z,752
2018-01-01T10:14:03.614Z,840
2018-01-01T10:15:05.034Z,660
2018-01-01T10:16:06.443Z,560
2018-01-01T10:17:07.851Z,656
2018-01-01T10:18:09.260Z,596
2018-01-01T10:19:10.695Z,612
2018-01-01T10:20:12.097Z,552
2018-01-01T10:21:13.537Z,424
2018-01-01T10:22:14.953Z,484
2018-01-01T10:23:16.407Z,508
2018-01-01T10:24:17.815Z,784
2018-01-01T10:25:19.230Z,644
2018-01-01T10:26:20.649Z,500
2018-01-01T10:27:22.784Z,480
2018-01-01T10:28:24.202Z,692
2018-01-01T10:29:27.019Z,996
2018-01-01T10:30:28.456Z,704
2018-01-01T10:31:29.876Z,456
2018-01-01T10:32:31.287Z,432
2018-01-01T10:33:32.700Z,416
2018-01-01T10:34:34.114Z,404
2018-01-01T10:35:35.532Z,540
2018-01-01T10:36:36.943Z,496
2018-01-01T10:37:38.371Z,560
2018-01-01T10:38:39.790Z,452
2018-01-01T10:39:41.198Z,476
2018-01-01T10:40:42.606Z,552
2018-01-01T10:41:44.030Z,456
2018-01-01T10:42:45.451Z,624
2018-01-01T10:43:46.860Z,700
2018-01-01T10:44:48.273Z,616
2018-01-01T10:45:49.685Z,680
2018-01-01T10:46:51.104Z,756
2018-01-01T10:47:52.516Z,676
2018-01-01T10:48:54.080Z,596
2018-01-01T10:49:55.494Z,584
2018-01-01T10:50:56.915Z,708
2018-01-01T10:51:58.337Z,748
2018-01-01T10:52:59.749Z,948
2018-01-01T10:54:01.161Z,832
2018-01-01T10:55:02.584Z,732
2018-01-01T10:56:03.997Z,688
2018-01-01T10:57:05.406Z,964
2018-01-01T10:58:06.832Z,1712
2018-01-01T10:59:08.244Z,1396
2018-01-01T11:00:09.689Z,1324
2018-01-01T11:01:11.089Z,988
2018-01-01T11:02:12.500Z,996
2018-01-01T11:03:13.914Z,780
2018-01-01T11:04:15.329Z,1228
2018-01-01T11:05:16.846Z,1392
2018-01-01T11:06:18.331Z,1028
2018-01-01T11:07:19.752Z,1724
2018-01-01T11:08:21.172Z,1692
2018-01-01T11:09:22.587Z,1532
2018-01-01T11:10:24.018Z,1940
2018-01-01T11:11:25.428Z,1740
2018-01-01T11:12:26.856Z,2128
2018-01-01T11:13:28.273Z,3092
2018-01-01T11:14:29.686Z,2932
2018-01-01T11:15:31.112Z,3164
2018-01-01T11:16:32.535Z,2344
2018-01-01T11:17:33.958Z,3308
2018-01-01T11:18:35.373Z,2384
2018-01-01T11:19:36.806Z,3220
2018-01-01T11:20:38.225Z,2908
2018-01-01T11:21:39.646Z,3204
2018-01-01T11:22:41.076Z,2032
2018-01-01T11:23:42.486Z,1372
2018-01-01T11:24:43.901Z,1976
2018-01-01T11:25:45.328Z,2632
2018-01-01T11:26:46.744Z,3368
2018-01-01T11:27:48.161Z,1860
2018-01-01T11:28:49.581Z,2308
2018-01-01T11:29:50.987Z,1468
2018-01-01T11:30:52.410Z,1196
2018-01-01T11:31:53.827Z,1384
2018-01-01T11:32:55.243Z,1416
2018-01-01T11:33:56.660Z,1184
2018-01-01T11:34:58.073Z,1152
2018-01-01T11:35:59.492Z,960
2018-01-01T11:37:00.908Z,720
2018-01-01T11:38:02.372Z,872
2018-01-01T11:39:03.796Z,764
2018-01-01T11:40:05.205Z,708
2018-01-01T11:41:06.617Z,700
2018-01-01T11:42:08.047Z,736
2018-01-01T11:43:09.454Z,660
2018-01-01T11:44:10.871Z,836
2018-01-01T11:45:12.284Z,848
2018-01-01T11:46:13.697Z,908
2018-01-01T11:47:15.112Z,1164
2018-01-01T11:48:17.326Z,1312
2018-01-01T11:49:18.689Z,1484
2018-01-01T11:50:20.165Z,876
2018-01-01T11:51:21.578Z,684
2018-01-01T11:52:22.999Z,804
2018-01-01T11:53:25.050Z,768
2018-01-01T11:54:26.333Z,1176
2018-01-01T11:55:27.745Z,1536
2018-01-01T11:56:29.161Z,468
2018-01-01T11:57:30.588Z,104
2018-01-01T11:58:32.003Z,2560
2018-01-01T11:59:33.428Z,1996
2018-01-01T12:00:34.854Z,2352
2018-01-01T12:01:36.270Z,2968
2018-01-01T12:02:37.680Z,3764
2018-01-01T12:03:39.120Z,4900
2018-01-01T12:04:40.539Z,3880
2018-01-01T12:05:41.953Z,3168
2018-01-01T12:06:43.379Z,2932
2018-01-01T12:07:44.800Z,2924
2018-01-01T12:08:46.226Z,3344
2018-01-01T12:09:47.646Z,700
2018-01-01T12:10:49.071Z,2344
2018-01-01T12:11:50.492Z,2636
2018-01-01T12:12:51.921Z,2592
2018-01-01T12:13:53.341Z,2560
2018-01-01T12:14:54.760Z,1804
2018-01-01T12:15:56.181Z,1964
2018-01-01T12:16:57.598Z,2488
2018-01-01T12:17:59.023Z,2000
2018-01-01T12:19:00.448Z,1792
2018-01-01T12:20:01.873Z,2248
2018-01-01T12:21:03.296Z,3132
2018-01-01T12:22:04.714Z,2640
2018-01-01T12:23:06.128Z,2396
2018-01-01T12:24:07.550Z,2960
2018-01-01T12:25:08.958Z,2656
2018-01-01T12:26:10.382Z,2524
2018-01-01T12:27:11.805Z,2796
2018-01-01T12:28:13.239Z,2964
2018-01-01T12:29:14.661Z,2188
2018-01-01T12:30:16.086Z,1644
2018-01-01T12:31:17.502Z,1676
2018-01-01T12:32:18.929Z,1652
2018-01-01T12:33:20.348Z,1360
2018-01-01T12:34:21.766Z,1824
2018-01-01T12:35:23.185Z,1984
2018-01-01T12:36:24.598Z,2072
2018-01-01T12:37:26.028Z,1372
2018-01-01T12:38:27.448Z,1292
2018-01-01T12:39:28.872Z,1056
2018-01-01T12:40:30.294Z,776
2018-01-01T12:41:31.709Z,780
2018-01-01T12:42:33.122Z,848
2018-01-01T12:43:34.529Z,928
2018-01-01T12:44:36.051Z,648
2018-01-01T12:45:37.464Z,608
2018-01-01T12:46:38.880Z,572
2018-01-01T12:47:40.301Z,560
2018-01-01T12:48:41.713Z,428
2018-01-01T12:49:43.131Z,396
2018-01-01T12:50:44.543Z,336
2018-01-01T12:51:45.958Z,240
2018-01-01T12:52:47.376Z,252
2018-01-01T12:53:48.808Z,284
2018-01-01T12:54:50.220Z,312
2018-01-01T12:55:51.648Z,340
2018-01-01T12:56:53.059Z,408
2018-01-01T12:57:54.489Z,612
2018-01-01T12:58:55.894Z,748
2018-01-01T12:59:57.321Z,1436
2018-01-01T13:00:58.742Z,2200
2018-01-01T13:02:00.166Z,1432
2018-01-01T13:03:01.580Z,968
2018-01-01T13:04:03.001Z,772
2018-01-01T13:05:04.408Z,708
2018-01-01T13:06:05.824Z,800
2018-01-01T13:07:07.253Z,904
2018-01-01T13:08:08.671Z,808
2018-01-01T13:09:10.083Z,728
2018-01-01T13:10:11.494Z,684
2018-01-01T13:11:12.914Z,652
2018-01-01T13:12:14.327Z,636
2018-01-01T13:13:15.759Z,624
2018-01-01T13:14:17.173Z,660
2018-01-01T13:15:19.277Z,712
2018-01-01T13:16:20.693Z,872
2018-01-01T13:17:22.931Z,1096
2018-01-01T13:18:24.369Z,1004
2018-01-01T13:19:25.790Z,1064
2018-01-01T13:20:27.244Z,1148
2018-01-01T13:21:28.663Z,1196
2018-01-01T13:22:30.081Z,1496
2018-01-01T13:23:31.488Z,1564
2018-01-01T13:24:32.944Z,1604
2018-01-01T13:25:34.327Z,1572
2018-01-01T13:26:35.745Z,1676
2018-01-01T13:27:37.176Z,2016
2018-01-01T13:28:38.592Z,2580
2018-01-01T13:29:40.002Z,3192
2018-01-01T13:30:41.421Z,3132
2018-01-01T13:31:42.841Z,3016
2018-01-01T13:32:44.255Z,2976
2018-01-01T13:33:45.818Z,2920
2018-01-01T13:34:47.234Z,2884
2018-01-01T13:35:48.649Z,2832
2018-01-01T13:36:50.072Z,2764
2018-01-01T13:37:51.495Z,2656
2018-01-01T13:38:52.918Z,2444
2018-01-01T13:39:54.323Z,2272
2018-01-01T13:40:55.751Z,2108
2018-01-01T13:41:57.170Z,1880
2018-01-01T13:42:58.588Z,1676
2018-01-01T13:44:00.021Z,1520
2018-01-01T13:45:01.500Z,1416
2018-01-01T13:46:02.915Z,1368
2018-01-01T13:47:04.347Z,1236
2018-01-01T13:48:05.756Z,1088
2018-01-01T13:49:07.170Z,956
2018-01-01T13:50:08.593Z,844
2018-01-01T13:51:10.013Z,680
2018-01-01T13:52:11.424Z,600
2018-01-01T13:53:12.847Z,568
2018-01-01T13:54:14.258Z,532
2018-01-01T13:55:15.670Z,568
2018-01-01T13:56:17.087Z,604
2018-01-01T13:57:18.508Z,656
2018-01-01T13:58:19.930Z,600
2018-01-01T13:59:21.337Z,688
2018-01-01T14:00:22.834Z,780
2018-01-01T14:01:24.270Z,796
2018-01-01T14:02:25.683Z,248
2018-01-01T14:03:27.102Z,444
2018-01-01T14:04:28.512Z,524
2018-01-01T14:05:29.924Z,640
2018-01-01T14:06:31.384Z,220
2018-01-01T14:07:32.800Z,212
2018-01-01T14:08:34.218Z,368
2018-01-01T14:09:35.643Z,252
2018-01-01T14:10:37.068Z,452
2018-01-01T14:11:38.487Z,452
2018-01-01T14:12:39.905Z,396
2018-01-01T14:13:41.394Z,372
2018-01-01T14:14:42.826Z,340
2018-01-01T14:15:44.217Z,344
2018-01-01T14:16:45.644Z,348
2018-01-01T14:17:47.063Z,360
2018-01-01T14:18:48.481Z,344
2018-01-01T14:19:49.892Z,320
2018-01-01T14:20:51.422Z,328
2018-01-01T14:21:52.842Z,328
2018-01-01T14:22:54.260Z,312
2018-01-01T14:23:55.674Z,296
2018-01-01T14:24:57.091Z,288
2018-01-01T14:25:58.498Z,276
2018-01-01T14:26:59.920Z,264
2018-01-01T14:28:01.354Z,256
2018-01-01T14:29:02.771Z,244
2018-01-01T14:30:04.338Z,232
2018-01-01T14:31:06.388Z,204
2018-01-01T14:32:07.794Z,176
2018-01-01T14:33:09.208Z,212